CheckWX is a tool to help pilots better visualize weather data.  It is not intended as a substitute for an official pre-flight weather briefing.

03:17:16 UTC

3T5 METAR
Fayette Regional Air Center Airport
La Grange, Texas, USA
Current

22 mins ago

K3T5 170255Z AUTO 18004KT 10SM CLR 18/18 A2991 RMK AO2 T01750175
Observed
Feb-17 @ 02:55 UTC
Wind
  • 180° at 4 KTS
Visibility
10 SM
Flight Rules
VFR
Cloud Levels
  • Clear skies
Temperature
18°C / 64°F
Dewpoint
18°C / 64°F
Humidity
100%
Altimeter
29.91" Hg
Pressure
1012.92 hPa
Previous

42 mins ago

K3T5 170235Z AUTO 17005KT 10SM CLR 17/17 A2991 RMK AO2 T01700170
Observed
Feb-17 @ 02:35 UTC
Wind
  • 170° at 5 KTS
Visibility
10 SM
Flight Rules
VFR
Cloud Levels
  • Clear skies
Temperature
17°C / 63°F
Dewpoint
17°C / 63°F
Humidity
100%
Altimeter
29.91" Hg
Pressure
1012.92 hPa
Previous

1 hour ago

K3T5 170215Z AUTO 17005KT 10SM CLR A2991 RMK AO2
Observed
Feb-17 @ 02:15 UTC
Wind
  • 170° at 5 KTS
Visibility
10 SM
Flight Rules
VFR
Cloud Levels
  • Clear skies
Altimeter
29.91" Hg
Pressure
1012.92 hPa